Time;durP1;ratioP1;P1;durP2;ratioP2;P2;SDS_P1;SDS_P2;PMS_P1;PMS_P2;Temp;Humidity;BMP_temperature;BMP_pressure;BME280_temperature;BME280_humidity;BME280_pressure;Samples;Min_cycle;Max_cycle;Signal;HPM_P1;HPM_P2
2022/11/04 00:00:19;;;;;;;17.15;14.55;;;10.30;99.90;;;;;;5026654;28;20519;-75
2022/11/04 00:02:45;;;;;;;16.95;14.80;;;10.20;99.90;;;;;;5013267;28;20097;-75
2022/11/04 00:05:10;;;;;;;20.33;15.98;;;10.20;99.90;;;;;;5026327;28;20026;-75
2022/11/04 00:12:23;;;;;;;18.60;15.18;;;10.20;99.90;;;;;;5030762;28;20156;-74
2022/11/04 00:13:05;;;;;;;19.15;17.13;;;10.10;99.90;;;;;;5014613;28;20021;-75
2022/11/04 00:18:19;;;;;;;19.30;16.02;;;10.00;99.90;;;;;;5013056;28;20037;-75
2022/11/04 00:28:57;;;;;;;16.30;14.57;;;10.20;99.90;;;;;;5012329;28;20056;-74
2022/11/04 00:34:07;;;;;;;17.52;15.70;;;10.20;99.90;;;;;;5012795;28;20112;-74
2022/11/04 00:36:33;;;;;;;18.98;16.75;;;10.20;99.90;;;;;;5012627;28;20022;-74
2022/11/04 00:38:59;;;;;;;18.13;15.63;;;10.20;99.90;;;;;;5012376;28;20026;-74
2022/11/04 00:41:24;;;;;;;18.52;16.35;;;10.20;99.90;;;;;;5012354;28;20032;-74
2022/11/04 00:43:54;;;;;;;18.45;16.52;;;10.20;99.90;;;;;;5016441;28;20029;-74
2022/11/04 00:46:20;;;;;;;16.98;15.25;;;10.20;99.90;;;;;;5020573;28;20026;-74
2022/11/04 00:48:47;;;;;;;18.55;16.30;;;10.20;99.90;;;;;;4994416;28;20399;-74
2022/11/04 00:51:12;;;;;;;17.20;15.27;;;10.20;99.90;;;;;;4994942;28;20022;-74
2022/11/04 00:53:38;;;;;;;17.80;14.85;;;10.20;99.90;;;;;;5012198;28;20079;-75
2022/11/04 00:56:04;;;;;;;18.67;16.77;;;10.20;99.90;;;;;;5012314;28;20488;-75
2022/11/04 00:58:29;;;;;;;18.00;16.13;;;10.20;99.90;;;;;;5025033;28;20034;-74
2022/11/04 01:00:55;;;;;;;22.33;19.98;;;10.20;99.90;;;;;;5005522;28;20052;-75
2022/11/04 01:03:20;;;;;;;24.00;21.77;;;10.10;99.90;;;;;;5014417;28;20435;-74
2022/11/04 01:05:46;;;;;;;22.83;20.83;;;10.10;99.90;;;;;;5023168;28;20395;-74
2022/11/04 01:08:11;;;;;;;27.85;25.42;;;10.10;99.90;;;;;;5014211;28;20476;-74
2022/11/04 01:10:43;;;;;;;25.67;23.23;;;10.00;99.90;;;;;;5022899;28;20029;-75
2022/11/04 01:13:09;;;;;;;32.60;30.10;;;10.00;99.90;;;;;;5009092;28;20190;-75
2022/11/04 01:15:36;;;;;;;39.38;36.28;;;10.00;99.90;;;;;;5023912;28;20468;-74
2022/11/04 01:18:03;;;;;;;41.60;38.42;;;9.90;99.90;;;;;;5018315;28;20100;-74
2022/11/04 01:20:28;;;;;;;44.17;40.78;;;9.80;99.90;;;;;;5031670;28;20026;-74
2022/11/04 01:22:54;;;;;;;44.88;41.55;;;9.80;99.90;;;;;;5031616;28;20439;-74
2022/11/04 01:25:19;;;;;;;45.10;41.70;;;9.80;99.90;;;;;;5013834;28;20361;-74
2022/11/04 01:27:45;;;;;;;45.75;42.42;;;9.80;99.90;;;;;;5013331;28;20061;-74
2022/11/04 01:30:11;;;;;;;47.60;43.95;;;9.80;99.90;;;;;;5014386;28;20018;-74
2022/11/04 01:32:36;;;;;;;47.20;43.83;;;9.80;99.90;;;;;;5013372;28;20021;-74
2022/11/04 01:35:02;;;;;;;49.95;46.15;;;9.80;99.90;;;;;;5011902;28;20034;-75
2022/11/04 01:37:28;;;;;;;50.65;46.95;;;9.70;99.90;;;;;;5011563;28;20071;-74
2022/11/04 01:39:53;;;;;;;51.47;48.03;;;9.70;99.90;;;;;;5005491;28;20465;-74
2022/11/04 01:42:22;;;;;;;52.20;48.47;;;9.70;99.90;;;;;;5026806;28;20503;-74
2022/11/04 01:44:51;;;;;;;53.22;49.42;;;9.70;99.90;;;;;;5011801;28;20033;-74
2022/11/04 01:47:35;;;;;;;52.55;48.85;;;9.70;99.90;;;;;;5011487;28;20029;-74
2022/11/04 01:50:11;;;;;;;51.03;47.40;;;9.80;99.90;;;;;;4994177;28;20065;-74
2022/11/04 01:52:42;;;;;;;55.65;51.35;;;9.70;99.90;;;;;;4994127;28;20029;-74
2022/11/04 01:55:31;;;;;;;57.53;53.67;;;9.70;99.90;;;;;;5011650;28;20022;-75
2022/11/04 01:58:03;;;;;;;54.63;50.72;;;9.80;99.90;;;;;;5012418;28;20022;-74
2022/11/04 02:00:28;;;;;;;53.50;49.70;;;9.70;99.90;;;;;;5004789;28;20029;-75
2022/11/04 02:03:23;;;;;;;54.45;50.72;;;9.70;99.90;;;;;;5021579;28;20022;-74
2022/11/04 02:05:50;;;;;;;52.65;48.85;;;9.80;99.90;;;;;;5013544;28;20073;-74
2022/11/04 02:08:17;;;;;;;52.03;48.42;;;9.80;99.90;;;;;;5015687;28;20025;-75
2022/11/04 02:10:51;;;;;;;53.60;49.90;;;9.80;99.90;;;;;;5035092;28;20056;-75
2022/11/04 02:13:16;;;;;;;51.95;48.38;;;9.80;99.90;;;;;;5015745;28;20033;-74
2022/11/04 02:15:49;;;;;;;51.85;48.53;;;9.80;99.90;;;;;;5015184;28;20032;-74
2022/11/04 02:18:33;;;;;;;52.20;48.60;;;9.80;99.90;;;;;;5016758;28;20021;-75
2022/11/04 02:21:29;;;;;;;53.17;49.58;;;9.80;99.90;;;;;;5004088;28;20036;-75
2022/11/04 02:24:22;;;;;;;53.72;50.08;;;9.80;99.90;;;;;;5003949;28;20075;-75
2022/11/04 02:26:56;;;;;;;52.55;48.95;;;9.80;99.90;;;;;;5015968;28;20021;-74
2022/11/04 02:29:55;;;;;;;52.97;49.33;;;9.90;99.90;;;;;;5029792;28;20026;-74
2022/11/04 02:32:45;;;;;;;52.92;49.50;;;9.90;99.90;;;;;;5029660;28;20108;-74
2022/11/04 02:35:21;;;;;;;55.42;51.42;;;9.80;99.90;;;;;;5021462;28;20017;-74
2022/11/04 02:37:58;;;;;;;53.17;49.47;;;9.80;99.90;;;;;;5021841;28;20642;-74
2022/11/04 02:40:56;;;;;;;53.90;50.10;;;9.80;99.90;;;;;;5034401;28;20029;-74
2022/11/04 02:43:47;;;;;;;53.10;49.28;;;9.80;99.90;;;;;;5034501;28;20491;-73
2022/11/04 02:46:22;;;;;;;52.45;48.80;;;9.80;99.90;;;;;;5024746;28;20033;-75
2022/11/04 02:48:56;;;;;;;54.03;50.40;;;9.80;99.90;;;;;;5014324;28;20068;-75
2022/11/04 02:51:30;;;;;;;52.80;49.10;;;9.80;99.90;;;;;;4997038;28;20033;-74
2022/11/04 02:54:14;;;;;;;53.88;50.22;;;9.80;99.90;;;;;;5034391;28;20053;-74
2022/11/04 02:56:44;;;;;;;53.63;49.75;;;9.80;99.90;;;;;;5020769;28;20029;-74
2022/11/04 02:59:18;;;;;;;56.40;52.22;;;9.80;99.90;;;;;;5006963;28;20052;-74
2022/11/04 03:01:48;;;;;;;53.88;50.00;;;9.80;99.90;;;;;;5000408;28;20484;-73
2022/11/04 03:04:18;;;;;;;54.58;50.45;;;9.80;99.90;;;;;;5005544;28;20041;-73
2022/11/04 03:06:46;;;;;;;53.08;49.13;;;9.80;99.90;;;;;;5001819;28;20025;-74
2022/11/04 03:09:14;;;;;;;51.30;47.75;;;9.80;99.90;;;;;;5029631;28;20014;-74
2022/11/04 03:11:44;;;;;;;53.92;50.17;;;9.80;99.90;;;;;;5033762;28;20373;-74
2022/11/04 03:14:15;;;;;;;52.28;48.95;;;9.70;99.90;;;;;;5020762;28;20040;-74
2022/11/04 03:16:54;;;;;;;53.35;49.45;;;9.80;99.90;;;;;;5020560;28;20042;-75
2022/11/04 03:19:23;;;;;;;52.60;49.13;;;9.70;99.90;;;;;;5021371;28;20105;-74
2022/11/04 03:21:59;;;;;;;51.80;48.40;;;9.80;99.90;;;;;;5023441;28;20021;-75
2022/11/04 03:24:25;;;;;;;51.03;47.70;;;9.80;99.90;;;;;;5033732;28;20380;-75
2022/11/04 03:26:58;;;;;;;52.30;48.90;;;9.70;99.90;;;;;;5024315;28;20032;-74
2022/11/04 03:29:32;;;;;;;53.63;50.10;;;9.70;99.90;;;;;;5033611;28;20032;-74
2022/11/04 03:32:26;;;;;;;49.47;46.28;;;9.70;99.90;;;;;;5020720;28;20115;-74
2022/11/04 03:34:52;;;;;;;52.50;49.17;;;9.70;99.90;;;;;;5023891;28;20018;-74
2022/11/04 03:37:17;;;;;;;52.95;49.63;;;9.70;99.90;;;;;;5029983;28;20076;-75
2022/11/04 03:39:43;;;;;;;50.17;46.97;;;9.70;99.90;;;;;;5013847;28;20052;-74
2022/11/04 03:42:20;;;;;;;50.03;47.03;;;9.70;99.90;;;;;;5009010;28;20488;-74
2022/11/04 03:44:52;;;;;;;48.97;45.97;;;9.70;99.90;;;;;;4995917;28;20572;-75
2022/11/04 03:47:19;;;;;;;49.97;46.88;;;9.70;99.90;;;;;;5013366;28;20100;-75
2022/11/04 03:49:50;;;;;;;46.05;43.28;;;9.70;99.90;;;;;;5008206;28;20113;-74
2022/11/04 03:52:17;;;;;;;46.75;44.15;;;9.70;99.90;;;;;;5029768;28;20029;-75
2022/11/04 03:54:43;;;;;;;53.83;50.40;;;9.70;99.90;;;;;;5019960;28;20025;-75
2022/11/04 03:57:15;;;;;;;51.42;48.28;;;9.60;99.90;;;;;;5008705;28;20076;-75
2022/11/04 03:59:59;;;;;;;50.85;47.75;;;9.70;99.90;;;;;;5009005;28;20108;-75
2022/11/04 04:02:45;;;;;;;47.05;44.45;;;9.70;99.90;;;;;;5005390;28;20423;-75
2022/11/04 04:05:25;;;;;;;49.25;46.42;;;9.70;99.90;;;;;;5013785;28;20126;-74
2022/11/04 04:07:53;;;;;;;47.80;45.10;;;9.60;99.90;;;;;;5012950;28;20029;-74
2022/11/04 04:10:38;;;;;;;45.38;42.88;;;9.70;99.90;;;;;;5030853;28;20057;-74
2022/11/04 04:13:39;;;;;;;46.83;44.17;;;9.70;99.90;;;;;;5032891;28;20024;-74
2022/11/04 04:16:15;;;;;;;43.55;41.22;;;9.60;99.90;;;;;;4986544;28;20554;-74
2022/11/04 04:19:02;;;;;;;46.75;44.05;;;9.60;99.90;;;;;;5014784;28;20026;-74
2022/11/04 04:21:34;;;;;;;45.40;42.70;;;9.60;99.90;;;;;;5018974;28;20056;-73
2022/11/04 04:29:35;;;;;;;44.30;41.88;;;9.60;99.90;;;;;;5031091;28;20594;-73
2022/11/04 04:32:02;;;;;;;42.08;39.70;;;9.60;99.90;;;;;;5032573;28;20029;-74
2022/11/04 04:34:30;;;;;;;43.40;40.92;;;9.60;99.90;;;;;;5032494;28;20025;-75
2022/11/04 04:37:14;;;;;;;42.60;40.20;;;9.50;99.90;;;;;;5032371;28;20052;-74
2022/11/04 04:45:35;;;;;;;37.60;35.50;;;9.50;99.90;;;;;;5029527;28;20040;-75
2022/11/04 04:48:00;;;;;;;38.25;36.35;;;9.60;99.90;;;;;;5023585;28;20501;-74
2022/11/04 04:50:36;;;;;;;38.50;36.70;;;9.50;99.90;;;;;;5014382;28;20106;-75
2022/11/04 04:53:03;;;;;;;36.15;34.42;;;9.50;99.90;;;;;;5024751;28;20017;-74
2022/11/04 04:55:30;;;;;;;39.13;37.28;;;9.50;99.90;;;;;;5018910;28;20025;-74
2022/11/04 04:57:56;;;;;;;32.22;30.75;;;9.50;99.90;;;;;;5019163;28;20018;-74
2022/11/04 05:00:22;;;;;;;37.67;35.97;;;9.50;99.90;;;;;;5007751;28;20670;-74
2022/11/04 05:02:48;;;;;;;34.08;32.45;;;9.50;99.90;;;;;;5007012;28;20108;-74
2022/11/04 05:05:14;;;;;;;33.20;31.60;;;9.50;99.90;;;;;;5018689;28;20049;-74
2022/11/04 05:07:39;;;;;;;35.83;34.13;;;9.50;99.90;;;;;;5019469;28;20503;-74
2022/11/04 05:10:09;;;;;;;36.58;34.88;;;9.40;99.90;;;;;;5013149;28;20479;-75
2022/11/04 05:15:21;;;;;;;37.60;35.67;;;9.40;99.90;;;;;;5032042;28;20056;-75
2022/11/04 05:17:46;;;;;;;34.42;32.83;;;9.40;99.90;;;;;;5018373;28;20068;-75
2022/11/04 05:20:12;;;;;;;35.00;33.40;;;9.40;99.90;;;;;;5022114;28;20080;-75
2022/11/04 05:22:37;;;;;;;34.70;32.97;;;9.40;99.90;;;;;;4997416;28;20025;-75
2022/11/04 05:25:03;;;;;;;30.88;29.48;;;9.40;99.90;;;;;;5031805;28;20028;-75
2022/11/04 05:27:29;;;;;;;35.83;34.13;;;9.40;99.90;;;;;;5018100;28;20033;-76
2022/11/04 05:29:54;;;;;;;35.53;33.83;;;9.40;99.90;;;;;;5004426;28;20138;-75
2022/11/04 05:32:20;;;;;;;33.08;31.45;;;9.40;99.90;;;;;;5007302;28;20057;-75
2022/11/04 05:34:47;;;;;;;29.23;27.75;;;9.40;99.90;;;;;;4994414;28;20509;-75
2022/11/04 05:37:12;;;;;;;28.08;26.75;;;9.40;99.90;;;;;;5025055;28;20032;-74
2022/11/04 05:39:38;;;;;;;28.60;27.30;;;9.40;99.90;;;;;;5021323;28;20029;-75
2022/11/04 05:42:03;;;;;;;30.50;29.10;;;9.40;99.90;;;;;;5015621;28;20033;-76
2022/11/04 05:44:29;;;;;;;29.25;27.85;;;9.30;99.90;;;;;;4994227;28;20053;-75
2022/11/04 05:46:54;;;;;;;28.83;27.52;;;9.30;99.90;;;;;;5014249;28;20106;-75
2022/11/04 05:49:20;;;;;;;32.50;31.02;;;9.30;99.90;;;;;;5031632;28;20033;-75
2022/11/04 05:51:45;;;;;;;24.38;23.10;;;9.30;99.90;;;;;;5018163;28;20037;-75
2022/11/04 05:54:11;;;;;;;31.35;29.95;;;9.40;99.90;;;;;;5022518;28;20036;-75
2022/11/04 05:56:36;;;;;;;36.53;34.33;;;9.40;99.90;;;;;;5007078;28;20021;-74
2022/11/04 05:59:02;;;;;;;129.95;116.55;;;9.40;99.90;;;;;;5020654;28;20061;-75
2022/11/04 06:01:33;;;;;;;584.72;409.20;;;9.40;99.90;;;;;;5011423;28;20033;-76
2022/11/04 06:04:00;;;;;;;132.80;118.82;;;9.40;99.90;;;;;;5021369;28;20519;-75
2022/11/04 06:06:32;;;;;;;39.75;36.67;;;9.40;99.90;;;;;;5018191;28;20033;-76
2022/11/04 06:08:59;;;;;;;33.22;31.20;;;9.40;99.90;;;;;;5009513;28;20028;-75
2022/11/04 06:11:26;;;;;;;36.63;34.30;;;9.40;99.90;;;;;;5027049;28;20033;-75
2022/11/04 06:13:55;;;;;;;37.53;35.30;;;9.40;99.90;;;;;;5011816;28;20117;-75
2022/11/04 06:16:21;;;;;;;27.35;25.95;;;9.40;99.90;;;;;;5016527;28;20018;-75
2022/11/04 06:18:47;;;;;;;25.75;24.38;;;9.40;99.90;;;;;;5031023;28;20518;-75
2022/11/04 06:21:12;;;;;;;21.33;20.05;;;9.40;99.90;;;;;;5017856;28;20025;-76
2022/11/04 06:23:41;;;;;;;23.58;22.23;;;9.50;99.90;;;;;;5019911;28;20430;-75
2022/11/04 06:26:07;;;;;;;64.13;57.53;;;9.50;99.90;;;;;;5024429;28;20018;-75
2022/11/04 06:28:33;;;;;;;45.80;40.85;;;9.50;99.90;;;;;;5022891;28;20183;-74
2022/11/04 06:31:00;;;;;;;17.55;16.08;;;9.50;99.90;;;;;;5017911;28;20603;-75
2022/11/04 06:33:27;;;;;;;17.83;16.75;;;9.50;99.90;;;;;;5001394;28;20033;-74
2022/11/04 06:36:00;;;;;;;51.22;45.70;;;9.50;99.90;;;;;;5024513;28;20080;-75
2022/11/04 06:38:28;;;;;;;59.30;52.83;;;9.50;99.90;;;;;;5024105;28;20065;-76
2022/11/04 06:40:53;;;;;;;52.25;45.17;;;9.50;99.90;;;;;;5017790;28;20120;-75
2022/11/04 06:43:19;;;;;;;29.55;27.00;;;9.60;99.90;;;;;;5017814;28;20110;-75
2022/11/04 06:45:51;;;;;;;32.03;29.63;;;9.50;99.90;;;;;;5027835;28;20125;-75
2022/11/04 06:48:16;;;;;;;19.55;18.35;;;9.50;99.90;;;;;;5027810;28;20083;-75
2022/11/04 06:50:42;;;;;;;24.95;23.65;;;9.50;99.90;;;;;;5022351;28;20467;-76
2022/11/04 06:53:07;;;;;;;25.05;23.65;;;9.40;99.90;;;;;;5003590;28;20014;-75
2022/11/04 06:55:33;;;;;;;19.60;18.50;;;9.40;99.90;;;;;;5026897;28;20537;-75
2022/11/04 06:57:58;;;;;;;17.95;16.77;;;9.40;99.90;;;;;;5027624;28;20036;-75
2022/11/04 07:00:24;;;;;;;14.68;13.68;;;9.30;99.90;;;;;;5021822;28;20043;-75
2022/11/04 07:02:50;;;;;;;8.00;7.43;;;9.40;99.90;;;;;;5033699;28;20030;-76
2022/11/04 07:05:16;;;;;;;7.43;6.82;;;9.30;99.90;;;;;;5021729;28;20104;-75
2022/11/04 07:07:41;;;;;;;9.15;8.55;;;9.40;99.90;;;;;;5020589;28;20025;-74
2022/11/04 07:10:07;;;;;;;4.90;4.57;;;9.30;99.90;;;;;;5033867;28;20029;-74
2022/11/04 07:12:33;;;;;;;5.20;4.82;;;9.40;99.90;;;;;;5034131;28;20032;-74
2022/11/04 07:14:58;;;;;;;4.63;4.32;;;9.40;99.90;;;;;;5027197;28;20385;-74
2022/11/04 07:17:24;;;;;;;5.50;4.55;;;9.40;99.90;;;;;;5009395;28;20032;-74
2022/11/04 07:19:49;;;;;;;5.35;4.95;;;9.40;99.90;;;;;;5020875;28;20033;-75
2022/11/04 07:22:15;;;;;;;5.22;4.72;;;9.40;99.90;;;;;;5033753;28;20087;-74
2022/11/04 07:24:40;;;;;;;8.77;7.95;;;9.40;99.90;;;;;;5020523;28;20071;-73
2022/11/04 07:27:06;;;;;;;8.85;8.23;;;9.40;99.90;;;;;;5020454;28;20072;-72
2022/11/04 07:29:32;;;;;;;8.65;8.05;;;9.40;99.90;;;;;;5003085;28;20045;-74
2022/11/04 07:31:58;;;;;;;9.38;8.68;;;9.30;99.90;;;;;;5003403;28;20072;-74
2022/11/04 07:34:23;;;;;;;4.40;4.00;;;9.30;99.90;;;;;;5027107;28;20037;-74
2022/11/04 07:36:49;;;;;;;6.47;6.00;;;9.30;99.90;;;;;;5008755;28;20026;-74
2022/11/04 07:39:15;;;;;;;7.32;6.82;;;9.30;99.90;;;;;;5020179;28;20100;-74
2022/11/04 07:41:40;;;;;;;7.75;7.18;;;9.30;99.90;;;;;;5020893;28;20076;-75
2022/11/04 07:44:06;;;;;;;7.97;7.43;;;9.30;99.90;;;;;;5027038;28;20026;-74
2022/11/04 07:46:32;;;;;;;5.40;4.97;;;9.30;99.90;;;;;;5025598;28;20504;-73
2022/11/04 07:48:58;;;;;;;4.75;2.80;;;9.40;99.90;;;;;;5015143;28;20018;-73
2022/11/04 07:51:25;;;;;;;3.17;2.85;;;9.50;99.90;;;;;;5020815;28;20037;-73
2022/11/04 07:53:50;;;;;;;4.55;2.78;;;9.60;99.90;;;;;;5026868;28;20675;-74
2022/11/04 07:56:17;;;;;;;5.35;3.17;;;9.60;99.90;;;;;;5007235;28;20029;-74
2022/11/04 07:58:43;;;;;;;4.63;3.10;;;9.60;99.90;;;;;;5002190;28;20022;-74
2022/11/04 08:01:12;;;;;;;3.88;3.42;;;9.60;99.90;;;;;;5025342;28;20049;-74
2022/11/04 08:03:39;;;;;;;6.57;4.07;;;9.60;99.90;;;;;;5013414;28;20105;-74
2022/11/04 08:06:06;;;;;;;5.50;3.88;;;9.60;99.90;;;;;;5026361;28;20032;-73
2022/11/04 08:08:32;;;;;;;8.50;4.25;;;9.60;99.90;;;;;;5024495;28;20025;-74
2022/11/04 08:11:01;;;;;;;4.65;3.85;;;9.60;99.90;;;;;;5038844;28;20029;-74
2022/11/04 08:13:28;;;;;;;3.45;2.33;;;9.60;99.90;;;;;;5023874;28;20033;-73
2022/11/04 08:15:54;;;;;;;4.03;2.13;;;9.60;99.90;;;;;;5000914;28;20037;-74
2022/11/04 08:18:19;;;;;;;4.90;2.03;;;9.60;99.90;;;;;;5012720;28;20037;-74
2022/11/04 08:20:50;;;;;;;4.03;2.53;;;9.50;99.90;;;;;;5013439;28;20041;-75
2022/11/04 08:23:17;;;;;;;4.07;1.83;;;9.60;99.90;;;;;;5024860;28;20160;-75
2022/11/04 08:25:43;;;;;;;4.25;2.10;;;9.50;99.90;;;;;;5008454;28;20022;-74
2022/11/04 08:28:11;;;;;;;4.90;2.10;;;9.50;99.90;;;;;;5020824;28;20399;-74
2022/11/04 08:30:37;;;;;;;3.88;2.15;;;9.50;99.90;;;;;;5019555;28;20014;-73
2022/11/04 08:33:04;;;;;;;3.38;2.42;;;9.50;99.90;;;;;;5024006;28;20060;-73
2022/11/04 08:35:30;;;;;;;6.28;2.40;;;9.40;99.90;;;;;;5025890;28;20491;-74
2022/11/04 08:37:55;;;;;;;4.93;2.30;;;9.30;99.90;;;;;;5003602;28;20057;-74
2022/11/04 08:40:21;;;;;;;4.25;3.17;;;9.40;99.90;;;;;;5019314;28;20018;-74
2022/11/04 08:42:47;;;;;;;5.03;2.60;;;9.50;99.90;;;;;;5023695;28;20415;-74
2022/11/04 08:45:12;;;;;;;6.00;3.00;;;9.40;99.90;;;;;;5008007;28;20476;-74
2022/11/04 08:47:38;;;;;;;7.40;4.90;;;9.30;99.90;;;;;;5003431;28;20091;-74
2022/11/04 08:50:04;;;;;;;6.05;5.45;;;9.40;99.90;;;;;;5019052;28;20499;-74
2022/11/04 08:52:29;;;;;;;5.15;3.70;;;9.40;99.90;;;;;;5023296;28;20053;-74
2022/11/04 08:54:55;;;;;;;6.78;4.68;;;9.30;99.90;;;;;;5007938;28;20037;-74
2022/11/04 08:57:20;;;;;;;12.82;6.95;;;9.20;99.90;;;;;;5003308;28;20029;-74
2022/11/04 08:59:46;;;;;;;6.78;3.80;;;9.30;99.90;;;;;;5000941;28;20037;-75
2022/11/04 09:02:14;;;;;;;5.07;3.10;;;9.30;99.90;;;;;;5023298;28;20030;-74
2022/11/04 09:04:39;;;;;;;4.53;3.13;;;9.30;99.90;;;;;;5025693;28;20013;-74
2022/11/04 09:07:05;;;;;;;5.38;3.80;;;9.20;99.90;;;;;;5020214;28;20048;-74
2022/11/04 09:09:31;;;;;;;4.72;4.28;;;9.20;99.90;;;;;;5027385;28;20395;-73
2022/11/04 09:11:56;;;;;;;3.22;2.92;;;9.20;99.90;;;;;;5014215;28;20029;-75
2022/11/04 09:14:22;;;;;;;5.78;3.90;;;9.20;99.90;;;;;;5018268;28;20037;-74
2022/11/04 09:16:48;;;;;;;4.03;3.60;;;9.20;99.90;;;;;;5023477;28;20029;-74
2022/11/04 09:19:14;;;;;;;6.90;4.30;;;9.20;99.90;;;;;;5024928;28;20514;-74
2022/11/04 09:21:40;;;;;;;6.25;4.60;;;9.30;99.90;;;;;;5012114;28;20034;-74
2022/11/04 09:24:06;;;;;;;7.18;4.65;;;9.30;99.90;;;;;;5025252;28;20022;-73
2022/11/04 09:26:32;;;;;;;4.72;4.30;;;9.30;99.90;;;;;;5020215;28;20025;-74
2022/11/04 09:28:58;;;;;;;5.90;3.97;;;9.30;99.90;;;;;;5000551;28;20080;-74
2022/11/04 09:31:27;;;;;;;6.00;4.32;;;9.30;99.90;;;;;;5006078;28;20509;-74
2022/11/04 09:33:54;;;;;;;6.68;3.88;;;9.40;99.90;;;;;;5013547;28;20048;-74
2022/11/04 09:36:20;;;;;;;6.22;4.40;;;9.50;99.90;;;;;;5023105;28;20022;-74
2022/11/04 09:38:45;;;;;;;5.55;4.18;;;9.50;99.90;;;;;;5024935;28;20022;-75
2022/11/04 09:41:46;;;;;;;4.68;4.30;;;9.50;99.90;;;;;;5002471;28;20033;-74
2022/11/04 09:44:39;;;;;;;4.85;4.43;;;9.40;99.90;;;;;;5018112;28;20105;-75
2022/11/04 09:47:09;;;;;;;4.80;4.35;;;9.50;99.90;;;;;;5027960;28;20491;-74
2022/11/04 09:49:39;;;;;;;5.97;5.00;;;9.50;99.90;;;;;;5003294;28;20026;-74
2022/11/04 09:52:17;;;;;;;7.35;5.25;;;9.50;99.90;;;;;;5025112;28;20026;-74
2022/11/04 09:55:09;;;;;;;6.40;5.90;;;9.60;99.90;;;;;;5011607;28;20032;-76
2022/11/04 09:57:34;;;;;;;6.88;5.65;;;9.70;99.90;;;;;;5021354;28;20029;-74
2022/11/04 10:00:00;;;;;;;8.43;5.47;;;9.70;99.90;;;;;;5000502;28;20112;-74
2022/11/04 10:02:53;;;;;;;6.38;5.72;;;9.60;99.90;;;;;;5021816;28;20026;-74
2022/11/04 10:05:52;;;;;;;7.13;4.60;;;9.60;99.90;;;;;;5033749;28;20031;-74
2022/11/04 10:08:59;;;;;;;7.43;4.20;;;9.70;99.90;;;;;;5010100;28;20506;-75
2022/11/04 10:11:39;;;;;;;6.60;5.30;;;9.60;99.90;;;;;;5013547;28;20036;-75
2022/11/04 10:14:39;;;;;;;5.68;4.70;;;9.50;99.90;;;;;;5031320;28;20034;-74
2022/11/04 10:17:47;;;;;;;5.13;3.50;;;9.50;99.90;;;;;;5022366;28;20418;-74
2022/11/04 10:20:49;;;;;;;4.57;3.33;;;9.60;99.90;;;;;;5024737;28;20022;-79
2022/11/04 10:23:22;;;;;;;5.45;4.05;;;9.60;99.90;;;;;;5006024;28;20413;-75
2022/11/04 10:25:58;;;;;;;5.07;4.15;;;9.70;99.90;;;;;;5004072;28;20050;-74
2022/11/04 10:28:31;;;;;;;6.75;3.40;;;9.80;99.90;;;;;;5024062;28;20523;-75
2022/11/04 10:30:58;;;;;;;4.75;3.60;;;9.80;99.90;;;;;;5028280;28;20036;-75
2022/11/04 10:33:39;;;;;;;7.75;3.25;;;9.90;99.90;;;;;;5026796;28;20048;-74
2022/11/04 10:36:08;;;;;;;5.32;2.78;;;10.00;99.90;;;;;;5022379;28;20025;-75
2022/11/04 10:38:45;;;;;;;9.18;3.00;;;10.00;99.90;;;;;;5033514;28;20048;-74
2022/11/04 10:41:26;;;;;;;8.48;3.38;;;10.10;99.90;;;;;;5006343;28;20021;-74
2022/11/04 10:44:19;;;;;;;10.10;3.90;;;10.20;99.90;;;;;;5003793;28;20017;-74
2022/11/04 10:47:00;;;;;;;5.50;3.20;;;10.20;99.90;;;;;;5021338;28;20486;-75
2022/11/04 10:50:03;;;;;;;6.70;2.88;;;10.20;99.90;;;;;;5024181;28;20108;-74
2022/11/04 10:52:32;;;;;;;6.05;2.78;;;10.20;99.90;;;;;;5023680;28;20029;-74
2022/11/04 10:54:58;;;;;;;8.52;2.83;;;10.40;99.90;;;;;;5028255;28;20169;-74
2022/11/04 10:57:24;;;;;;;7.75;3.08;;;10.60;99.90;;;;;;5023306;28;20113;-74
2022/11/04 10:59:56;;;;;;;5.95;2.30;;;10.80;99.90;;;;;;5003274;28;20451;-74
2022/11/04 11:02:36;;;;;;;7.80;2.85;;;10.70;99.90;;;;;;5024744;28;20076;-75
2022/11/04 11:05:17;;;;;;;4.68;2.65;;;10.60;99.90;;;;;;5027868;28;20022;-74
2022/11/04 11:07:53;;;;;;;7.82;3.47;;;10.70;99.90;;;;;;5027706;28;20032;-74
2022/11/04 11:10:24;;;;;;;5.65;2.20;;;10.50;99.90;;;;;;5034047;28;20021;-74
2022/11/04 11:12:55;;;;;;;6.78;2.45;;;10.50;99.90;;;;;;5033871;28;20037;-74
2022/11/04 11:15:24;;;;;;;6.22;3.00;;;10.70;99.90;;;;;;5006787;28;20030;-74
2022/11/04 11:17:58;;;;;;;4.72;2.60;;;10.70;99.90;;;;;;5027396;28;20065;-74
2022/11/04 11:20:25;;;;;;;8.35;2.80;;;10.70;99.90;;;;;;5003908;28;20026;-75
2022/11/04 11:22:53;;;;;;;6.18;2.42;;;10.70;99.90;;;;;;5004617;28;20523;-74
2022/11/04 11:25:27;;;;;;;8.07;2.58;;;10.70;99.90;;;;;;5016853;28;20017;-75
2022/11/04 11:28:04;;;;;;;6.43;2.20;;;10.60;99.90;;;;;;5027287;28;20391;-74
2022/11/04 11:30:41;;;;;;;5.78;2.28;;;10.70;99.90;;;;;;5027079;28;20025;-74
2022/11/04 11:33:26;;;;;;;4.85;2.30;;;10.80;99.90;;;;;;5023573;28;20552;-73
2022/11/04 11:35:58;;;;;;;6.65;2.90;;;10.70;99.90;;;;;;5010617;28;20516;-73
2022/11/04 11:38:26;;;;;;;10.15;3.17;;;10.60;99.90;;;;;;4995939;28;20514;-74
2022/11/04 11:41:03;;;;;;;6.78;2.80;;;10.80;99.90;;;;;;5013914;28;20407;-74
2022/11/04 11:43:32;;;;;;;8.45;3.05;;;10.90;99.90;;;;;;5013701;28;20022;-74
2022/11/04 11:45:59;;;;;;;6.78;2.53;;;10.80;99.90;;;;;;5013509;28;20026;-74
2022/11/04 11:48:41;;;;;;;8.95;2.97;;;10.90;99.90;;;;;;5013254;28;20025;-74
2022/11/04 11:51:12;;;;;;;6.68;2.40;;;11.10;99.90;;;;;;4996097;28;20026;-74
2022/11/04 11:53:44;;;;;;;6.53;2.72;;;10.80;99.90;;;;;;5013468;28;20416;-74
2022/11/04 11:56:33;;;;;;;6.97;3.00;;;11.00;99.90;;;;;;5013915;28;20435;-76
2022/11/04 11:59:51;;;;;;;7.95;3.10;;;11.10;99.90;;;;;;5004753;28;20029;-76
2022/11/04 12:02:34;;;;;;;10.18;3.15;;;11.20;99.90;;;;;;5028059;28;20450;-74
2022/11/04 12:05:01;;;;;;;12.07;3.47;;;11.30;99.90;;;;;;5028000;28;20088;-74
2022/11/04 12:07:51;;;;;;;13.77;5.00;;;11.30;99.90;;;;;;4995392;28;20137;-74
2022/11/04 12:10:34;;;;;;;8.18;2.70;;;11.30;99.90;;;;;;5012643;28;20112;-73
2022/11/04 12:13:25;;;;;;;7.88;3.17;;;11.30;99.90;;;;;;4998062;28;20056;-74
2022/11/04 12:16:09;;;;;;;7.68;2.70;;;11.30;99.90;;;;;;5013077;28;20113;-75
2022/11/04 12:19:11;;;;;;;8.50;3.00;;;11.30;99.90;;;;;;5020827;28;20061;-74
2022/11/04 12:21:46;;;;;;;6.40;2.40;;;11.20;99.90;;;;;;5014933;28;20119;-77
2022/11/04 12:24:28;;;;;;;6.72;2.42;;;10.90;99.90;;;;;;5019668;28;20547;-74
2022/11/04 12:27:19;;;;;;;5.70;2.13;;;11.00;99.90;;;;;;5032248;28;20034;-75
2022/11/04 12:30:00;;;;;;;5.72;2.47;;;11.20;99.90;;;;;;5012829;28;20064;-75
2022/11/04 12:32:59;;;;;;;6.70;2.97;;;11.30;99.90;;;;;;5012831;28;20109;-75
2022/11/04 12:35:45;;;;;;;7.22;2.55;;;11.40;99.90;;;;;;5026697;28;20034;-75
2022/11/04 12:38:33;;;;;;;9.65;2.55;;;11.50;99.90;;;;;;5022238;28;20032;-76
2022/11/04 12:41:22;;;;;;;7.57;2.30;;;11.50;99.90;;;;;;5012249;28;20030;-75
2022/11/04 12:43:54;;;;;;;7.95;2.70;;;11.40;99.90;;;;;;4971754;28;20093;-77
2022/11/04 12:46:28;;;;;;;8.70;2.30;;;11.40;99.90;;;;;;5023025;28;20095;-76
2022/11/04 12:49:28;;;;;;;5.45;1.85;;;11.50;99.90;;;;;;5013884;28;20022;-75
2022/11/04 12:52:21;;;;;;;6.28;2.25;;;11.60;99.90;;;;;;4994897;28;20022;-76
2022/11/04 12:55:01;;;;;;;5.45;2.08;;;11.70;99.90;;;;;;4994775;28;20026;-76
2022/11/04 12:58:01;;;;;;;4.00;1.70;;;11.60;99.90;;;;;;5012481;28;20156;-76
2022/11/04 13:00:29;;;;;;;7.13;2.08;;;11.40;99.90;;;;;;4979414;28;20045;-75
2022/11/04 13:03:07;;;;;;;4.45;2.03;;;11.20;99.90;;;;;;5018716;28;20022;-75
2022/11/04 13:05:41;;;;;;;5.47;2.13;;;11.10;99.90;;;;;;5023411;28;20049;-75
2022/11/04 13:08:37;;;;;;;6.85;1.90;;;11.20;99.90;;;;;;5007683;28;20022;-75
2022/11/04 13:11:24;;;;;;;5.65;2.17;;;11.10;99.90;;;;;;5026001;28;20033;-75
2022/11/04 13:14:06;;;;;;;3.67;1.88;;;11.00;99.90;;;;;;5012207;28;20021;-74
2022/11/04 13:16:37;;;;;;;5.20;2.45;;;11.00;99.90;;;;;;5030750;28;20021;-74
2022/11/04 13:19:07;;;;;;;9.63;4.90;;;11.00;99.90;;;;;;5018583;28;20101;-75
2022/11/04 13:21:36;;;;;;;7.53;2.25;;;11.10;99.90;;;;;;5019127;28;20029;-75
2022/11/04 13:24:24;;;;;;;4.25;2.05;;;11.10;99.90;;;;;;5030419;28;20021;-74
2022/11/04 13:26:51;;;;;;;9.73;3.45;;;11.00;99.90;;;;;;5012870;28;20504;-75
2022/11/04 13:29:20;;;;;;;13.60;9.20;;;11.10;99.90;;;;;;5037001;28;20025;-78
2022/11/04 13:31:54;;;;;;;5.90;3.38;;;11.10;99.90;;;;;;5033920;28;20022;-78
2022/11/04 13:34:31;;;;;;;5.13;2.30;;;11.10;99.90;;;;;;5037734;28;20045;-77
2022/11/04 13:37:12;;;;;;;6.55;2.10;;;11.10;99.90;;;;;;5020692;28;20033;-77
2022/11/04 13:39:53;;;;;;;8.25;2.15;;;11.00;99.90;;;;;;5008053;28;20392;-75